Decoded Metar for PASM (SAINT MARYS in AK, USA) (IATA:KSM) | Meteo·Mobile Aviation Weather
aviador You're here:

PASM Decoded Metar

SAINT MARYS in AK, USA
Report Time2018-09-22 09:02:00
UTC Time2018-09-22 09:25:27
Flight Rules lifr LIFR
Wind170° at 08 kt
W.Decomp.*RWY 17: 7.8 kt HW 1.7 kt LCW
RWY 24: 1.1 kt HW 7.9 kt LCW
W.Rank170° ranks 19
Current wind is below 170° avg. (8.7)
Visibility9999 m
Phenomena:N/A
Clouds:Overcast 003 Hf
Ceiling300 ft
Temp08°C (ISA -6)
Dew Point08°C (100% RH)
AAT4.7°C
QNH996 hPa
Density Alt262 ft
Elevation302 ft
Report Wrong Elevation
Raw Report
PASM 220902Z AUTO 17008KT 10SM OVC003 08/08 A2941 RMK AO2 SLP975
60008 T00780078 58004=

Extra information for PASM:More info

Metar Taf Metar & Taf Last 4 Metars F.Rules Stats Wind Profile Meteogram Temp Stats Airport Information Weather charts Add Link Nearby VenuesMetar ALERT Operation Metar Decoded Social comments

AIRNAV info for PASM